Attapulgus, Georgia
Current Conditions -  °F | °C
As of 1:55 PM on Friday 21 Nov 2014 (Local Time) from K2J9 Reporting Station
Clear Clear  
Wind Chill: 72°   Ceiling: Unl
Heat Index: 72°   Visibility: 10mi
Dew Point: 39°   Wind: 10mph
Humidity: 31%   Direction: 80°E
Pressure: 30.32"   Gusts: 16mph
Location:  30.75°N, 84.48°W
Report Text: K2J9 211855Z AUTO 08009G14KT 10SM CLR 22/04 A3032 RMK AO1
Loading
Personal Weather Stations






























Interactive Weather Map New forecast layout! Learn more

10-Day Weather Forecast

Advertisements
Track Severe Weather on mobile